TimeMST,TemperatureF,Dew PointF,Humidity,Sea Level PressureIn,VisibilityMPH,Wind Direction,Wind SpeedMPH,Gust SpeedMPH,PrecipitationIn,Events,Conditions,WindDirDegrees,DateUTC
12:53 AM,7.0,1.9,80,30.40,10.0,North,16.1,-,N/A,,Clear,10,2013-02-16 07:53:00
1:53 AM,5.0,1.0,84,30.40,10.0,North,11.5,-,N/A,,Clear,10,2013-02-16 08:53:00
2:53 AM,9.0,3.0,77,30.36,10.0,North,17.3,-,N/A,,Clear,350,2013-02-16 09:53:00
3:53 AM,5.0,1.0,84,30.38,10.0,North,6.9,-,N/A,,Clear,350,2013-02-16 10:53:00
4:53 AM,16.0,5.0,62,30.31,10.0,North,16.1,33.4,N/A,,Clear,350,2013-02-16 11:53:00
5:53 AM,10.0,3.0,73,30.37,10.0,Calm,Calm,-,N/A,,Clear,0,2013-02-16 12:53:00
6:53 AM,8.1,1.9,76,30.41,10.0,East,3.5,-,N/A,,Clear,80,2013-02-16 13:53:00
7:53 AM,8.1,1.9,76,30.42,10.0,Variable,3.5,-,N/A,,Clear,0,2013-02-16 14:53:00
8:53 AM,19.0,6.1,57,30.38,10.0,Calm,Calm,-,N/A,,Clear,0,2013-02-16 15:53:00
9:53 AM,21.9,7.0,53,30.37,10.0,WNW,12.7,20.7,N/A,,Clear,290,2013-02-16 16:53:00
10:53 AM,25.0,10.0,53,30.31,10.0,West,18.4,25.3,N/A,,Clear,280,2013-02-16 17:53:00
11:53 AM,26.1,10.9,53,30.30,6.0,WNW,26.5,33.4,N/A,,Haze,300,2013-02-16 18:53:00
12:53 PM,28.0,10.0,47,30.24,10.0,WNW,20.7,26.5,N/A,,Clear,300,2013-02-16 19:53:00
1:53 PM,30.0,10.0,43,30.22,10.0,NNW,10.4,26.5,N/A,,Clear,330,2013-02-16 20:53:00
2:53 PM,30.9,8.1,38,30.17,10.0,NW,16.1,25.3,N/A,,Clear,320,2013-02-16 21:53:00
3:53 PM,30.9,6.1,35,30.18,10.0,NNW,11.5,20.7,N/A,,Clear,330,2013-02-16 22:53:00
4:53 PM,28.9,5.0,36,30.12,10.0,Variable,3.5,23.0,N/A,,Clear,0,2013-02-16 23:53:00
5:53 PM,25.0,5.0,43,30.17,10.0,North,13.8,21.9,N/A,,Clear,10,2013-02-17 00:53:00
6:53 PM,24.1,1.9,38,30.20,10.0,Variable,6.9,-,N/A,,Clear,0,2013-02-17 01:53:00
7:53 PM,23.0,1.9,40,30.20,10.0,North,10.4,-,N/A,,Clear,350,2013-02-17 02:53:00
8:53 PM,19.9,-0.9,40,30.13,10.0,NNW,6.9,-,N/A,,Clear,340,2013-02-17 03:53:00
9:53 PM,21.0,-0.0,40,30.09,10.0,North,10.4,-,N/A,,Clear,10,2013-02-17 04:53:00
10:53 PM,21.9,-0.0,38,30.04,10.0,North,6.9,-,N/A,,Clear,10,2013-02-17 05:53:00
11:53 PM,19.0,-0.9,42,30.04,10.0,Variable,6.9,-,N/A,,Clear,0,2013-02-17 06:53:00